createdAt,value
2023-02-04T00:00:10.742Z,1019.54
2023-02-04T00:01:10.704Z,1019.55
2023-02-04T00:02:10.690Z,1019.53
2023-02-04T00:03:10.623Z,1019.51
2023-02-04T00:04:10.849Z,1019.70
2023-02-04T00:05:10.614Z,1019.85
2023-02-04T00:06:10.582Z,1019.72
2023-02-04T00:07:10.491Z,1019.58
2023-02-04T00:08:10.441Z,1019.70
2023-02-04T00:09:10.407Z,1019.67
2023-02-04T00:10:10.442Z,1019.83
2023-02-04T00:11:10.327Z,1019.80
2023-02-04T00:12:10.317Z,1019.79
2023-02-04T00:13:10.264Z,1019.88
2023-02-04T00:14:10.229Z,1019.86
2023-02-04T00:15:10.189Z,1020.11
2023-02-04T00:16:10.276Z,1020.01
2023-02-04T00:17:10.144Z,1020.12
2023-02-04T00:18:10.119Z,1020.30
2023-02-04T00:19:10.076Z,1020.22
2023-02-04T00:20:10.013Z,1020.07
2023-02-04T00:21:09.991Z,1020.30
2023-02-04T00:22:10.009Z,1020.34
2023-02-04T00:23:09.899Z,1020.23
2023-02-04T00:24:09.872Z,1020.30
2023-02-04T00:25:09.830Z,1020.30
2023-02-04T00:26:09.755Z,1020.30
2023-02-04T00:27:09.721Z,1020.43
2023-02-04T00:28:09.819Z,1020.47
2023-02-04T00:29:09.646Z,1020.39
2023-02-04T00:30:09.647Z,1020.40
2023-02-04T00:31:09.603Z,1020.54
2023-02-04T00:32:09.628Z,1020.51
2023-02-04T00:33:09.560Z,1020.53
2023-02-04T00:34:09.483Z,1020.60
2023-02-04T00:35:09.437Z,1020.63
2023-02-04T00:36:09.402Z,1020.58
2023-02-04T00:37:09.349Z,1020.62
2023-02-04T00:38:09.876Z,1020.64
2023-02-04T00:39:09.285Z,1020.73
2023-02-04T00:40:09.239Z,1020.77
2023-02-04T00:41:09.214Z,1020.85
2023-02-04T00:42:09.157Z,1020.76
2023-02-04T00:43:09.166Z,1020.77
2023-02-04T00:44:09.074Z,1020.91
2023-02-04T00:45:09.051Z,1020.89
2023-02-04T00:46:09.018Z,1021.04
2023-02-04T00:47:08.962Z,1020.98
2023-02-04T00:48:08.929Z,1021.07
2023-02-04T00:49:08.947Z,1021.16
2023-02-04T00:50:08.868Z,1021.12
2023-02-04T00:51:08.821Z,1021.13
2023-02-04T00:52:08.802Z,1021.17
2023-02-04T00:53:08.749Z,1021.31
2023-02-04T00:54:08.712Z,1021.36
2023-02-04T00:55:08.865Z,1021.32
2023-02-04T00:56:08.679Z,1021.45
2023-02-04T00:57:08.594Z,1021.53
2023-02-04T00:58:08.563Z,1021.56
2023-02-04T00:59:08.532Z,1021.50
2023-02-04T01:00:08.501Z,1021.61
2023-02-04T01:01:08.552Z,1021.71
2023-02-04T01:02:08.432Z,1021.86
2023-02-04T01:03:08.424Z,1021.88
2023-02-04T01:04:08.330Z,1022.05
2023-02-04T01:05:08.300Z,1021.98
2023-02-04T01:06:08.319Z,1021.89
2023-02-04T01:07:08.244Z,1022.18
2023-02-04T01:08:08.189Z,1022.07
2023-02-04T01:09:08.157Z,1022.11
2023-02-04T01:10:08.129Z,1022.14
2023-02-04T01:11:08.137Z,1022.40
2023-02-04T01:12:08.046Z,1022.12
2023-02-04T01:13:07.996Z,1022.18
2023-02-04T01:14:07.978Z,1022.30
2023-02-04T01:15:07.946Z,1022.49
2023-02-04T01:16:07.921Z,1022.37
2023-02-04T01:17:07.912Z,1022.41
2023-02-04T01:18:07.799Z,1022.36
2023-02-04T01:19:07.778Z,1022.37
2023-02-04T01:20:07.730Z,1022.48
2023-02-04T01:21:07.714Z,1022.44
2023-02-04T01:22:07.665Z,1022.51
2023-02-04T01:23:07.673Z,1022.53
2023-02-04T01:24:07.584Z,1022.71
2023-02-04T01:25:07.534Z,1022.51
2023-02-04T01:26:07.495Z,1022.59
2023-02-04T01:27:07.473Z,1022.53
2023-02-04T01:28:07.611Z,1022.61
2023-02-04T01:29:07.499Z,1022.70
2023-02-04T01:30:07.352Z,1022.65
2023-02-04T01:31:07.399Z,1022.68
2023-02-04T01:32:07.320Z,1022.63
2023-02-04T01:33:07.286Z,1022.67
2023-02-04T01:34:07.195Z,1022.70
2023-02-04T01:35:07.159Z,1022.72
2023-02-04T01:36:07.126Z,1022.74
2023-02-04T01:37:07.076Z,1022.81
2023-02-04T01:38:07.185Z,1022.79
2023-02-04T01:39:07.000Z,1022.81
2023-02-04T01:40:06.969Z,1022.80
2023-02-04T01:41:06.923Z,1022.84
2023-02-04T01:42:06.897Z,1022.89
2023-02-04T01:43:06.931Z,1022.95
2023-02-04T01:44:06.811Z,1023.07
2023-02-04T01:45:06.777Z,1023.05
2023-02-04T01:46:06.930Z,1023.10
2023-02-04T01:47:06.714Z,1023.12
2023-02-04T01:48:06.744Z,1023.17
2023-02-04T01:49:06.633Z,1023.20
2023-02-04T01:50:06.589Z,1023.15
2023-02-04T01:51:06.561Z,1023.20
2023-02-04T01:52:06.508Z,1023.21
2023-02-04T01:53:06.567Z,1023.30
2023-02-04T01:54:06.482Z,1023.33
2023-02-04T01:55:06.396Z,1023.35
2023-02-04T01:56:06.349Z,1023.35
2023-02-04T01:57:06.308Z,1023.42
2023-02-04T01:58:06.279Z,1023.43
2023-02-04T01:59:06.299Z,1023.45
2023-02-04T02:00:06.209Z,1023.46
2023-02-04T02:01:06.172Z,1023.50
2023-02-04T02:02:06.186Z,1023.48
2023-02-04T02:03:06.191Z,1023.48
2023-02-04T02:04:06.121Z,1023.60
2023-02-04T02:05:06.005Z,1023.60
2023-02-04T02:06:05.961Z,1023.61
2023-02-04T02:07:05.937Z,1023.61
2023-02-04T02:08:05.898Z,1023.70
2023-02-04T02:09:05.842Z,1023.73
2023-02-04T02:10:05.899Z,1023.74
2023-02-04T02:11:05.775Z,1023.72
2023-02-04T02:12:05.739Z,1023.83
2023-02-04T02:13:05.687Z,1023.79
2023-02-04T02:14:05.658Z,1023.79
2023-02-04T02:15:05.617Z,1023.86
2023-02-04T02:16:05.646Z,1023.81
2023-02-04T02:17:05.552Z,1023.79
2023-02-04T02:18:05.508Z,1023.83
2023-02-04T02:19:05.464Z,1023.91
2023-02-04T02:20:05.507Z,1023.90
2023-02-04T02:21:05.392Z,1023.86
2023-02-04T02:22:05.417Z,1024.01
2023-02-04T02:23:05.378Z,1024.02
2023-02-04T02:24:05.295Z,1024.03
2023-02-04T02:25:05.267Z,1024.04
2023-02-04T02:26:05.231Z,1024.09
2023-02-04T02:27:05.187Z,1024.10
2023-02-04T02:28:05.278Z,1024.17
2023-02-04T02:29:05.092Z,1024.16
2023-02-04T02:31:44.017Z,1024.30
2023-02-04T02:32:44.559Z,1024.29
2023-02-04T02:33:44.876Z,1024.31
2023-02-04T02:34:43.852Z,1024.30
2023-02-04T02:35:43.808Z,1024.34
2023-02-04T02:36:43.778Z,1024.38
2023-02-04T02:37:43.733Z,1024.40
2023-02-04T02:38:43.692Z,1024.40
2023-02-04T02:39:43.711Z,1024.44
2023-02-04T02:40:43.605Z,1024.39
2023-02-04T02:41:43.603Z,1024.46
2023-02-04T02:42:43.559Z,1024.56
2023-02-04T02:43:43.490Z,1024.61
2023-02-04T02:44:43.500Z,1024.61
2023-02-04T02:45:43.426Z,1024.64
2023-02-04T02:46:43.367Z,1024.64
2023-02-04T02:47:43.324Z,1024.70
2023-02-04T02:48:43.285Z,1024.68
2023-02-04T02:49:43.368Z,1024.68
2023-02-04T02:50:43.223Z,1024.70
2023-02-04T02:51:43.175Z,1024.71
2023-02-04T02:52:43.192Z,1024.72
2023-02-04T02:53:43.093Z,1024.84
2023-02-04T02:54:43.061Z,1024.83
2023-02-04T02:55:43.888Z,1024.90
2023-02-04T02:56:42.980Z,1024.90
2023-02-04T02:57:42.991Z,1024.91
2023-02-04T02:58:42.935Z,1024.91
2023-02-04T02:59:42.871Z,1025.00
2023-02-04T03:00:42.831Z,1025.01
2023-02-04T03:01:42.784Z,1025.06
2023-02-04T03:02:42.851Z,1025.05
2023-02-04T03:03:43.382Z,1025.10
2023-02-04T03:04:42.669Z,1025.08
2023-02-04T03:05:42.630Z,1025.09
2023-02-04T03:06:42.760Z,1025.16
2023-02-04T03:07:42.617Z,1025.19
2023-02-04T03:08:42.526Z,1025.23
2023-02-04T03:09:42.471Z,1025.25
2023-02-04T03:10:42.443Z,1025.27
2023-02-04T03:11:42.401Z,1025.34
2023-02-04T03:12:42.413Z,1025.32
2023-02-04T03:13:42.337Z,1025.32
2023-02-04T03:14:42.289Z,1025.38
2023-02-04T03:15:42.348Z,1025.41
2023-02-04T03:16:42.205Z,1025.43
2023-02-04T03:17:42.217Z,1025.46
2023-02-04T03:18:42.128Z,1025.49
2023-02-04T03:19:42.098Z,1025.53
2023-02-04T03:20:42.052Z,1025.58
2023-02-04T03:21:42.037Z,1025.60
2023-02-04T03:22:41.980Z,1025.63
2023-02-04T03:23:47.877Z,1025.65
2023-02-04T03:24:41.896Z,1025.72
2023-02-04T03:25:41.864Z,1025.75
2023-02-04T03:26:41.837Z,1025.82
2023-02-04T03:27:41.827Z,1025.83
2023-02-04T03:28:41.750Z,1025.86
2023-02-04T03:29:41.759Z,1025.86
2023-02-04T03:30:41.750Z,1025.88
2023-02-04T03:31:41.709Z,1025.90
2023-02-04T03:32:41.661Z,1025.91
2023-02-04T03:33:41.557Z,1025.93
2023-02-04T03:34:41.548Z,1025.89
2023-02-04T03:35:41.534Z,1026.02
2023-02-04T03:36:41.440Z,1025.97
2023-02-04T03:37:41.396Z,1026.05
2023-02-04T03:38:41.380Z,1026.08
2023-02-04T03:39:41.324Z,1026.11
2023-02-04T03:40:41.901Z,1026.17
2023-02-04T03:41:41.306Z,1026.22
2023-02-04T03:42:41.202Z,1026.28
2023-02-04T03:43:41.170Z,1026.27
2023-02-04T03:44:41.143Z,1026.32
2023-02-04T03:45:45.507Z,1026.36
2023-02-04T03:46:41.062Z,1026.37
2023-02-04T03:47:41.089Z,1026.38
2023-02-04T03:48:40.975Z,1026.43
2023-02-04T03:49:40.931Z,1026.44
2023-02-04T03:50:40.893Z,1026.49
2023-02-04T03:51:40.874Z,1026.52
2023-02-04T03:52:40.813Z,1026.53
2023-02-04T03:53:40.829Z,1026.55
2023-02-04T03:54:40.742Z,1026.61
2023-02-04T03:55:40.697Z,1026.64
2023-02-04T03:56:40.664Z,1026.67
2023-02-04T03:57:41.385Z,1026.66
2023-02-04T03:58:40.663Z,1026.70
2023-02-04T03:59:40.550Z,1026.77
2023-02-04T04:00:40.545Z,1026.75
2023-02-04T04:01:40.526Z,1026.78
2023-02-04T04:02:40.482Z,1026.80
2023-02-04T04:03:40.412Z,1026.80
2023-02-04T04:04:40.410Z,1026.77
2023-02-04T04:05:40.362Z,1026.80
2023-02-04T04:06:40.314Z,1026.84
2023-02-04T04:07:40.236Z,1026.88
2023-02-04T04:08:40.223Z,1026.90
2023-02-04T04:09:40.208Z,1026.90
2023-02-04T04:10:41.974Z,1026.97
2023-02-04T04:11:40.089Z,1026.95
2023-02-04T04:12:40.045Z,1026.98
2023-02-04T04:13:40.036Z,1026.99
2023-02-04T04:14:40.158Z,1027.02
2023-02-04T04:15:40.068Z,1027.06
2023-02-04T04:16:39.894Z,1027.06
2023-02-04T04:17:39.848Z,1027.08
2023-02-04T04:18:39.908Z,1027.12
2023-02-04T04:19:39.770Z,1027.19
2023-02-04T04:20:40.505Z,1027.25
2023-02-04T04:21:39.756Z,1027.24
2023-02-04T04:22:39.659Z,1027.25
2023-02-04T04:23:39.685Z,1027.26
2023-02-04T04:24:39.580Z,1027.31
2023-02-04T04:25:39.545Z,1027.32
2023-02-04T04:26:39.512Z,1027.37
2023-02-04T04:27:39.515Z,1027.40
2023-02-04T04:28:39.503Z,1027.40
2023-02-04T04:29:39.419Z,1027.49
2023-02-04T04:30:39.386Z,1027.51
2023-02-04T04:31:39.541Z,1027.54
2023-02-04T04:32:39.271Z,1027.55
2023-02-04T04:33:39.223Z,1027.58
2023-02-04T04:34:39.274Z,1027.61
2023-02-04T04:35:39.160Z,1027.69
2023-02-04T04:36:39.095Z,1027.68
2023-02-04T04:37:39.073Z,1027.72
2023-02-04T04:38:39.026Z,1027.73
2023-02-04T04:39:38.993Z,1027.75
2023-02-04T04:40:39.113Z,1027.75
2023-02-04T04:41:38.916Z,1027.80
2023-02-04T04:42:38.871Z,1027.83
2023-02-04T04:43:38.843Z,1027.87
2023-02-04T04:44:38.787Z,1027.85
2023-02-04T04:45:38.746Z,1027.90
2023-02-04T04:46:38.777Z,1027.92
2023-02-04T04:47:38.674Z,1027.97
2023-02-04T04:48:39.559Z,1027.95
2023-02-04T04:49:38.601Z,1027.96
2023-02-04T04:50:38.574Z,1027.96
2023-02-04T04:51:38.517Z,1028.03
2023-02-04T04:52:38.571Z,1028.04
2023-02-04T04:53:38.439Z,1028.05
2023-02-04T04:54:38.409Z,1028.03
2023-02-04T04:55:38.363Z,1028.07
2023-02-04T04:56:38.325Z,1028.14
2023-02-04T04:57:38.290Z,1028.12
2023-02-04T04:58:38.301Z,1028.11
2023-02-04T04:59:38.210Z,1028.23
2023-02-04T05:00:38.196Z,1028.20
2023-02-04T05:01:38.132Z,1028.27
2023-02-04T05:02:38.094Z,1028.27
2023-02-04T05:03:47.038Z,1028.29
2023-02-04T05:04:50.104Z,1028.29
2023-02-04T05:05:38.001Z,1028.33
2023-02-04T05:06:45.609Z,1028.32
2023-02-04T05:07:37.897Z,1028.31
2023-02-04T05:08:37.861Z,1028.39
2023-02-04T05:09:37.896Z,1028.38
2023-02-04T05:10:37.781Z,1028.43
2023-02-04T05:11:37.794Z,1028.41
2023-02-04T05:12:37.702Z,1028.44
2023-02-04T05:13:37.667Z,1028.44
2023-02-04T05:14:37.655Z,1028.52
2023-02-04T05:15:37.589Z,1028.47
2023-02-04T05:16:37.618Z,1028.56
2023-02-04T05:17:37.549Z,1028.51
2023-02-04T05:18:37.472Z,1028.57
2023-02-04T05:19:37.454Z,1028.56
2023-02-04T05:20:37.418Z,1028.60
2023-02-04T05:21:37.442Z,1028.66
2023-02-04T05:22:37.372Z,1028.76
2023-02-04T05:23:37.277Z,1028.70
2023-02-04T05:24:37.230Z,1028.76
2023-02-04T05:25:37.208Z,1028.78
2023-02-04T05:26:37.230Z,1028.83
2023-02-04T05:27:37.116Z,1028.82
2023-02-04T05:28:37.102Z,1028.86
2023-02-04T05:29:37.048Z,1028.90
2023-02-04T05:30:37.041Z,1028.91
2023-02-04T05:31:37.007Z,1028.92
2023-02-04T05:32:36.999Z,1028.92
2023-02-04T05:33:36.889Z,1028.93
2023-02-04T05:34:39.673Z,1028.98
2023-02-04T05:35:36.802Z,1028.95
2023-02-04T05:36:36.777Z,1029.03
2023-02-04T05:37:36.724Z,1029.04
2023-02-04T05:38:36.751Z,1029.11
2023-02-04T05:39:36.669Z,1029.15
2023-02-04T05:40:36.616Z,1029.11
2023-02-04T05:41:36.570Z,1029.13
2023-02-04T05:42:36.545Z,1029.17
2023-02-04T05:43:36.559Z,1029.17
2023-02-04T05:44:36.468Z,1029.22
2023-02-04T05:45:36.517Z,1029.23
2023-02-04T05:46:36.372Z,1029.25
2023-02-04T05:47:36.425Z,1029.32
2023-02-04T05:48:36.299Z,1029.31
2023-02-04T05:49:36.402Z,1029.34
2023-02-04T05:50:36.240Z,1029.34
2023-02-04T05:51:36.195Z,1029.37
2023-02-04T05:52:36.139Z,1029.37
2023-02-04T05:53:36.100Z,1029.45
2023-02-04T05:54:36.113Z,1029.42
2023-02-04T05:55:36.031Z,1029.47
2023-02-04T05:56:35.987Z,1029.51
2023-02-04T05:57:35.949Z,1029.54
2023-02-04T05:58:35.903Z,1029.57
2023-02-04T05:59:35.940Z,1029.57
2023-02-04T06:00:35.837Z,1029.67
2023-02-04T06:01:35.793Z,1029.68
2023-02-04T06:02:35.871Z,1029.69
2023-02-04T06:03:35.869Z,1029.73
2023-02-04T06:04:35.749Z,1029.71
2023-02-04T06:05:35.633Z,1029.76
2023-02-04T06:06:35.594Z,1029.78
2023-02-04T06:07:35.554Z,1029.80
2023-02-04T06:08:35.515Z,1029.86
2023-02-04T06:09:35.474Z,1029.79
2023-02-04T06:10:35.518Z,1029.86
2023-02-04T06:11:35.405Z,1029.87
2023-02-04T06:12:35.366Z,1029.91
2023-02-04T06:13:35.348Z,1029.91
2023-02-04T06:14:35.278Z,1029.91
2023-02-04T06:15:35.242Z,1029.94
2023-02-04T06:16:35.309Z,1030.00
2023-02-04T06:17:35.165Z,1029.96
2023-02-04T06:18:35.129Z,1030.00
2023-02-04T06:19:35.096Z,1029.98
2023-02-04T06:20:35.058Z,1029.96
2023-02-04T06:21:35.006Z,1029.99
2023-02-04T06:22:35.237Z,1030.00
2023-02-04T06:23:34.942Z,1030.01
2023-02-04T06:24:34.891Z,1030.00
2023-02-04T06:25:34.860Z,1030.01
2023-02-04T06:26:34.826Z,1030.01
2023-02-04T06:27:34.789Z,1030.03
2023-02-04T06:28:34.815Z,1030.09
2023-02-04T06:29:34.719Z,1030.09
2023-02-04T06:30:35.029Z,1030.07
2023-02-04T06:31:34.722Z,1030.12
2023-02-04T06:32:34.580Z,1030.12
2023-02-04T06:33:34.547Z,1030.14
2023-02-04T06:34:34.562Z,1030.13
2023-02-04T06:35:34.462Z,1030.14
2023-02-04T06:36:34.464Z,1030.09
2023-02-04T06:37:34.382Z,1030.10
2023-02-04T06:38:34.355Z,1030.06
2023-02-04T06:39:34.321Z,1030.14
2023-02-04T06:40:34.566Z,1030.08
2023-02-04T06:41:34.244Z,1030.05
2023-02-04T06:42:34.188Z,1030.11
2023-02-04T06:43:34.153Z,1030.10
2023-02-04T06:44:34.124Z,1030.05
2023-02-04T06:45:34.075Z,1030.09
2023-02-04T06:46:34.109Z,1030.13
2023-02-04T06:47:34.520Z,1030.14
2023-02-04T06:48:33.946Z,1030.11
2023-02-04T06:49:33.904Z,1030.16
2023-02-04T06:50:34.129Z,1030.18
2023-02-04T06:51:33.840Z,1030.21
2023-02-04T06:52:33.870Z,1030.24
2023-02-04T06:53:33.789Z,1030.24
2023-02-04T06:54:33.713Z,1030.26
2023-02-04T06:55:33.677Z,1030.27
2023-02-04T06:56:33.646Z,1030.36
2023-02-04T06:57:33.600Z,1030.40
2023-02-04T06:58:33.631Z,1030.36
2023-02-04T06:59:33.518Z,1030.39
2023-02-04T07:00:33.840Z,1030.39
2023-02-04T07:01:33.450Z,1030.41
2023-02-04T07:02:33.497Z,1030.42
2023-02-04T07:03:33.368Z,1030.41
2023-02-04T07:04:33.454Z,1030.44
2023-02-04T07:05:33.290Z,1030.45
2023-02-04T07:06:33.323Z,1030.44
2023-02-04T07:07:33.205Z,1030.52
2023-02-04T07:08:33.169Z,1030.54
2023-02-04T07:09:33.143Z,1030.59
2023-02-04T07:10:33.474Z,1030.58
2023-02-04T07:11:33.050Z,1030.58
2023-02-04T07:12:33.078Z,1030.61
2023-02-04T07:13:32.971Z,1030.58
2023-02-04T07:14:33.616Z,1030.61
2023-02-04T07:15:32.907Z,1030.61
2023-02-04T07:16:32.856Z,1030.64
2023-02-04T07:17:33.517Z,1030.65
2023-02-04T07:18:32.826Z,1030.61
2023-02-04T07:19:32.820Z,1030.63
2023-02-04T07:20:33.135Z,1030.64
2023-02-04T07:21:34.512Z,1030.67
2023-02-04T07:22:32.618Z,1030.69
2023-02-04T07:23:32.584Z,1030.66
2023-02-04T07:24:32.602Z,1030.70
2023-02-04T07:25:32.507Z,1030.71
2023-02-04T07:26:32.468Z,1030.71
2023-02-04T07:27:32.471Z,1030.72
2023-02-04T07:28:32.455Z,1030.73
2023-02-04T07:29:32.341Z,1030.71
2023-02-04T07:30:32.722Z,1030.71
2023-02-04T07:31:32.336Z,1030.68
2023-02-04T07:32:32.226Z,1030.74
2023-02-04T07:33:32.185Z,1030.79
2023-02-04T07:34:32.147Z,1030.77
2023-02-04T07:35:32.110Z,1030.78
2023-02-04T07:36:32.183Z,1030.83
2023-02-04T07:37:32.033Z,1030.84
2023-02-04T07:38:31.994Z,1030.84
2023-02-04T07:39:31.953Z,1030.88
2023-02-04T07:40:32.245Z,1030.92
2023-02-04T07:41:31.877Z,1030.92
2023-02-04T07:42:31.889Z,1030.93
2023-02-04T07:43:31.807Z,1030.93
2023-02-04T07:44:31.807Z,1030.95
2023-02-04T07:45:31.736Z,1031.02
2023-02-04T07:46:31.737Z,1031.03
2023-02-04T07:47:31.633Z,1031.07
2023-02-04T07:48:31.670Z,1031.12
2023-02-04T07:49:31.550Z,1031.16
2023-02-04T07:50:31.917Z,1031.18
2023-02-04T07:51:31.481Z,1031.17
2023-02-04T07:52:31.436Z,1031.28
2023-02-04T07:53:31.549Z,1031.24
2023-02-04T07:54:31.416Z,1031.27
2023-02-04T07:55:31.323Z,1031.32
2023-02-04T07:56:31.285Z,1031.31
2023-02-04T07:57:31.333Z,1031.36
2023-02-04T07:58:31.198Z,1031.37
2023-02-04T07:59:31.168Z,1031.34
2023-02-04T08:00:31.499Z,1031.38
2023-02-04T08:01:31.155Z,1031.40
2023-02-04T08:02:31.648Z,1031.39
2023-02-04T08:03:32.841Z,1031.44
2023-02-04T08:04:30.974Z,1031.48
2023-02-04T08:05:30.931Z,1031.47
2023-02-04T08:06:30.998Z,1031.48
2023-02-04T08:07:30.846Z,1031.53
2023-02-04T08:08:30.814Z,1031.55
2023-02-04T08:09:30.774Z,1031.57
2023-02-04T08:10:37.504Z,1031.61
2023-02-04T08:11:31.166Z,1031.62
2023-02-04T08:12:30.652Z,1031.65
2023-02-04T08:13:30.614Z,1031.66
2023-02-04T08:14:30.598Z,1031.74
2023-02-04T08:15:30.542Z,1031.71
2023-02-04T08:16:30.498Z,1031.73
2023-02-04T08:22:25.308Z,1031.86
2023-02-04T08:23:07.144Z,1031.87
2023-02-04T08:24:07.091Z,1031.86
2023-02-04T08:25:07.054Z,1031.86
2023-02-04T08:26:07.014Z,1031.91
2023-02-04T08:27:07.002Z,1031.94
2023-02-04T08:28:07.048Z,1031.93
2023-02-04T08:29:06.920Z,1031.98
2023-02-04T08:31:46.268Z,1031.96
2023-02-04T08:32:46.182Z,1032.02
2023-02-04T08:33:46.215Z,1032.02
2023-02-04T08:34:46.104Z,1032.00
2023-02-04T08:35:46.064Z,1032.04
2023-02-04T08:36:46.028Z,1032.06
2023-02-04T08:37:45.983Z,1032.06
2023-02-04T08:38:46.521Z,1032.02
2023-02-04T08:39:45.909Z,1032.05
2023-02-04T08:40:45.874Z,1032.08
2023-02-04T08:41:45.960Z,1032.04
2023-02-04T08:42:45.798Z,1032.09
2023-02-04T08:43:45.814Z,1032.06
2023-02-04T08:44:45.728Z,1032.13
2023-02-04T08:45:45.691Z,1032.08
2023-02-04T08:46:45.697Z,1032.14
2023-02-04T08:47:45.615Z,1032.08
2023-02-04T08:48:45.584Z,1032.04
2023-02-04T08:49:45.630Z,1032.11
2023-02-04T08:50:45.498Z,1032.09
2023-02-04T08:51:45.466Z,1032.15
2023-02-04T08:52:45.444Z,1032.15
2023-02-04T08:53:45.394Z,1032.11
2023-02-04T08:54:45.444Z,1032.20
2023-02-04T08:55:45.322Z,1032.11
2023-02-04T08:56:45.281Z,1032.21
2023-02-04T08:57:45.256Z,1032.22
2023-02-04T08:58:46.226Z,1032.22
2023-02-04T08:59:46.096Z,1032.26
2023-02-04T09:00:45.216Z,1032.20
2023-02-04T09:01:45.110Z,1032.16
2023-02-04T09:02:45.064Z,1032.30
2023-02-04T09:03:45.034Z,1032.22
2023-02-04T09:04:44.977Z,1032.26
2023-02-04T09:05:45.004Z,1032.28
2023-02-04T09:06:44.965Z,1032.26
2023-02-04T09:07:44.868Z,1032.30
2023-02-04T09:08:44.837Z,1032.30
2023-02-04T09:09:44.792Z,1032.32
2023-02-04T09:10:44.773Z,1032.34
2023-02-04T09:11:44.742Z,1032.34
2023-02-04T09:12:44.729Z,1032.34
2023-02-04T09:13:44.642Z,1032.41
2023-02-04T09:14:44.610Z,1032.41
2023-02-04T09:15:44.562Z,1032.37
2023-02-04T09:16:44.555Z,1032.39
2023-02-04T09:17:44.488Z,1032.44
2023-02-04T09:18:44.504Z,1032.47
2023-02-04T09:19:44.405Z,1032.56
2023-02-04T09:20:44.407Z,1032.55
2023-02-04T09:21:44.336Z,1032.54
2023-02-04T09:22:44.308Z,1032.57
2023-02-04T09:23:44.267Z,1032.60
2023-02-04T09:24:44.293Z,1032.69
2023-02-04T09:25:44.210Z,1032.71
2023-02-04T09:26:44.155Z,1032.66
2023-02-04T09:27:44.145Z,1032.65
2023-02-04T09:28:44.097Z,1032.65
2023-02-04T09:29:44.060Z,1032.67
2023-02-04T09:30:44.084Z,1032.66
2023-02-04T09:31:44.054Z,1032.68
2023-02-04T09:32:44.074Z,1032.70
2023-02-04T09:33:43.896Z,1032.74
2023-02-04T09:34:43.854Z,1032.74
2023-02-04T09:35:43.817Z,1032.74
2023-02-04T09:36:43.824Z,1032.73
2023-02-04T09:37:43.739Z,1032.72
2023-02-04T09:38:43.702Z,1032.73
2023-02-04T09:39:44.358Z,1032.76
2023-02-04T09:40:43.630Z,1032.82
2023-02-04T09:41:43.604Z,1032.93
2023-02-04T09:42:43.597Z,1032.79
2023-02-04T09:43:43.515Z,1032.89
2023-02-04T09:44:43.472Z,1032.90
2023-02-04T09:45:43.478Z,1032.91
2023-02-04T09:46:43.409Z,1032.93
2023-02-04T09:47:43.369Z,1032.89
2023-02-04T09:48:43.391Z,1032.91
2023-02-04T09:49:43.334Z,1032.89
2023-02-04T09:50:43.259Z,1032.83
2023-02-04T09:51:43.227Z,1032.87
2023-02-04T09:52:43.212Z,1032.88
2023-02-04T09:53:43.137Z,1032.86
2023-02-04T09:54:43.155Z,1032.90
2023-02-04T09:55:43.079Z,1032.90
2023-02-04T09:56:43.067Z,1032.90
2023-02-04T09:57:42.973Z,1032.87
2023-02-04T09:58:42.934Z,1032.90
2023-02-04T09:59:42.897Z,1032.91
2023-02-04T10:00:42.940Z,1032.98
2023-02-04T10:01:42.835Z,1032.94
2023-02-04T10:02:42.788Z,1032.98
2023-02-04T10:03:42.750Z,1032.95
2023-02-04T10:04:42.707Z,1032.97
2023-02-04T10:05:43.344Z,1032.97
2023-02-04T10:06:42.893Z,1032.94
2023-02-04T10:07:42.593Z,1032.93
2023-02-04T10:08:42.545Z,1033.01
2023-02-04T10:09:42.523Z,1033.01
2023-02-04T10:10:42.480Z,1033.01
2023-02-04T10:11:42.442Z,1032.99
2023-02-04T10:12:42.454Z,1032.97
2023-02-04T10:13:42.392Z,1033.01
2023-02-04T10:14:42.317Z,1033.02
2023-02-04T10:15:42.283Z,1033.00
2023-02-04T10:16:42.397Z,1033.02
2023-02-04T10:17:42.211Z,1033.01
2023-02-04T10:18:42.264Z,1033.00
2023-02-04T10:19:42.132Z,1033.02
2023-02-04T10:20:42.096Z,1033.00
2023-02-04T10:21:42.059Z,1033.03
2023-02-04T10:22:42.021Z,1033.00
2023-02-04T10:23:42.005Z,1033.01
2023-02-04T10:24:41.991Z,1033.02
2023-02-04T10:25:41.902Z,1033.06
2023-02-04T10:26:41.873Z,1033.03
2023-02-04T10:27:41.874Z,1033.01
2023-02-04T10:28:41.951Z,1033.05
2023-02-04T10:29:42.407Z,1033.09
2023-02-04T10:30:42.479Z,1033.05
2023-02-04T10:31:41.855Z,1033.02
2023-02-04T10:32:45.236Z,1033.06
2023-02-04T10:33:41.694Z,1033.10
2023-02-04T10:34:41.676Z,1033.04
2023-02-04T10:35:41.611Z,1033.10
2023-02-04T10:36:41.516Z,1033.07
2023-02-04T10:37:41.471Z,1033.16
2023-02-04T10:38:41.427Z,1033.11
2023-02-04T10:39:41.389Z,1033.19
2023-02-04T10:40:43.239Z,1033.17
2023-02-04T10:41:41.320Z,1033.13
2023-02-04T10:42:41.277Z,1033.12
2023-02-04T10:43:41.240Z,1033.17
2023-02-04T10:44:41.202Z,1033.17
2023-02-04T10:45:41.167Z,1033.14
2023-02-04T10:46:41.232Z,1033.16
2023-02-04T10:47:41.177Z,1033.17
2023-02-04T10:48:41.068Z,1033.16
2023-02-04T10:49:41.018Z,1033.22
2023-02-04T10:50:40.977Z,1033.16
2023-02-04T10:51:40.946Z,1033.14
2023-02-04T10:52:40.990Z,1033.23
2023-02-04T10:53:40.881Z,1033.19
2023-02-04T10:54:40.916Z,1033.15
2023-02-04T10:55:40.860Z,1033.11
2023-02-04T10:56:40.802Z,1033.17
2023-02-04T10:57:40.792Z,1033.20
2023-02-04T10:58:40.750Z,1033.21
2023-02-04T10:59:40.649Z,1033.17
2023-02-04T11:00:40.610Z,1033.16
2023-02-04T11:01:40.628Z,1033.15
2023-02-04T11:02:40.544Z,1033.24
2023-02-04T11:03:41.283Z,1033.21
2023-02-04T11:04:40.581Z,1033.19
2023-02-04T11:05:40.430Z,1033.27
2023-02-04T11:06:40.496Z,1033.23
2023-02-04T11:07:40.356Z,1033.26
2023-02-04T11:08:40.321Z,1033.25
2023-02-04T11:09:40.366Z,1033.25
2023-02-04T11:10:40.409Z,1033.32
2023-02-04T11:11:40.240Z,1033.31
2023-02-04T11:12:40.401Z,1033.34
2023-02-04T11:13:40.190Z,1033.32
2023-02-04T11:14:41.747Z,1033.31
2023-02-04T11:15:41.133Z,1033.32
2023-02-04T11:16:40.203Z,1033.34
2023-02-04T11:17:40.750Z,1033.28
2023-02-04T11:18:40.002Z,1033.33
2023-02-04T11:19:39.924Z,1033.31
2023-02-04T11:20:39.875Z,1033.33
2023-02-04T11:21:40.085Z,1033.30
2023-02-04T11:22:39.809Z,1033.35
2023-02-04T11:23:39.784Z,1033.38
2023-02-04T11:24:39.763Z,1033.37
2023-02-04T11:25:39.714Z,1033.40
2023-02-04T11:26:39.649Z,1033.40
2023-02-04T11:27:39.764Z,1033.41
2023-02-04T11:28:39.599Z,1033.44
2023-02-04T11:29:39.549Z,1033.42
2023-02-04T11:30:39.641Z,1033.48
2023-02-04T11:31:39.694Z,1033.47
2023-02-04T11:32:39.434Z,1033.41
2023-02-04T11:33:39.485Z,1033.45
2023-02-04T11:34:39.378Z,1033.43
2023-02-04T11:35:39.343Z,1033.45
2023-02-04T11:36:39.294Z,1033.47
2023-02-04T11:37:39.286Z,1033.48
2023-02-04T11:38:39.244Z,1033.46
2023-02-04T11:39:39.403Z,1033.47
2023-02-04T11:40:39.165Z,1033.48
2023-02-04T11:41:39.222Z,1033.50
2023-02-04T11:42:39.068Z,1033.57
2023-02-04T11:43:40.248Z,1033.61
2023-02-04T11:44:39.752Z,1033.55
2023-02-04T11:45:39.002Z,1033.55
2023-02-04T11:46:39.034Z,1033.59
2023-02-04T11:47:39.073Z,1033.69
2023-02-04T11:48:39.058Z,1033.61
2023-02-04T11:49:38.901Z,1033.71
2023-02-04T11:50:38.856Z,1033.61
2023-02-04T11:51:38.908Z,1033.64
2023-02-04T11:52:38.702Z,1033.55
2023-02-04T11:53:38.671Z,1033.59
2023-02-04T11:54:38.630Z,1033.65
2023-02-04T11:55:38.673Z,1033.62
2023-02-04T11:56:38.617Z,1033.71
2023-02-04T11:57:38.549Z,1033.71
2023-02-04T11:58:38.499Z,1033.70
2023-02-04T11:59:38.453Z,1033.69
2023-02-04T12:00:38.421Z,1033.69
2023-02-04T12:01:38.470Z,1033.71
2023-02-04T12:02:38.430Z,1033.68
2023-02-04T12:03:38.351Z,1033.71
2023-02-04T12:04:38.288Z,1033.66
2023-02-04T12:05:38.324Z,1033.65
2023-02-04T12:06:38.205Z,1033.71
2023-02-04T12:07:38.223Z,1033.81
2023-02-04T12:08:38.123Z,1033.77
2023-02-04T12:09:38.111Z,1033.71
2023-02-04T12:10:38.086Z,1033.73
2023-02-04T12:11:38.005Z,1033.67
2023-02-04T12:12:37.982Z,1033.66